createdAt,value
2023-02-15T00:00:28.167Z,80.78
2023-02-15T00:03:14.288Z,80.75
2023-02-15T00:05:42.914Z,80.69
2023-02-15T00:08:11.517Z,80.72
2023-02-15T00:10:40.207Z,80.76
2023-02-15T00:13:08.887Z,80.66
2023-02-15T00:15:37.397Z,80.84
2023-02-15T00:18:06.158Z,80.70
2023-02-15T00:20:34.949Z,80.77
2023-02-15T00:23:03.734Z,80.92
2023-02-15T00:25:32.426Z,80.90
2023-02-15T00:28:01.523Z,80.90
2023-02-15T00:30:30.448Z,80.99
2023-02-15T00:32:59.293Z,80.83
2023-02-15T00:35:28.082Z,81.14
2023-02-15T00:37:57.936Z,81.26
2023-02-15T00:40:26.784Z,81.19
2023-02-15T00:42:57.038Z,81.41
2023-02-15T00:45:25.727Z,81.52
2023-02-15T00:47:54.384Z,81.81
2023-02-15T00:50:23.880Z,81.77
2023-02-15T00:52:52.469Z,81.83
2023-02-15T00:55:22.002Z,81.78
2023-02-15T00:57:51.480Z,81.45
2023-02-15T01:00:20.271Z,81.66
2023-02-15T01:02:49.596Z,81.55
2023-02-15T01:05:18.388Z,81.70
2023-02-15T01:07:47.139Z,81.72
2023-02-15T01:10:16.135Z,81.79
2023-02-15T01:12:44.843Z,81.92
2023-02-15T01:15:13.613Z,81.83
2023-02-15T01:17:42.328Z,81.82
2023-02-15T01:20:12.634Z,81.95
2023-02-15T01:22:41.646Z,82.04
2023-02-15T01:25:10.542Z,82.11
2023-02-15T01:27:39.395Z,82.20
2023-02-15T01:30:10.349Z,82.40
2023-02-15T01:32:39.123Z,82.37
2023-02-15T01:35:08.210Z,82.33
2023-02-15T01:37:37.672Z,82.12
2023-02-15T01:40:14.232Z,82.37
2023-02-15T01:42:43.322Z,82.49
2023-02-15T01:45:33.436Z,82.16
2023-02-15T01:48:18.951Z,82.24
2023-02-15T01:50:55.556Z,82.31
2023-02-15T01:53:42.022Z,82.28
2023-02-15T01:56:29.179Z,82.30
2023-02-15T01:59:01.611Z,82.17
2023-02-15T02:01:30.245Z,82.16
2023-02-15T02:04:21.977Z,82.05
2023-02-15T02:06:53.479Z,82.19
2023-02-15T02:09:22.215Z,82.19
2023-02-15T02:11:52.915Z,82.34
2023-02-15T02:14:23.641Z,82.17
2023-02-15T02:17:06.453Z,82.21
2023-02-15T02:19:47.221Z,82.23
2023-02-15T02:22:50.309Z,82.34
2023-02-15T02:25:48.991Z,82.44
2023-02-15T02:28:41.844Z,82.35
2023-02-15T02:31:32.944Z,82.44
2023-02-15T02:34:16.214Z,82.57
2023-02-15T02:37:04.939Z,82.53
2023-02-15T02:39:52.288Z,82.45
2023-02-15T02:42:37.754Z,82.42
2023-02-15T02:45:25.888Z,82.55
2023-02-15T02:47:59.796Z,82.34
2023-02-15T02:50:31.448Z,82.27
2023-02-15T02:53:01.180Z,82.08
2023-02-15T02:55:41.225Z,82.24
2023-02-15T02:58:37.240Z,82.21
2023-02-15T03:01:24.148Z,82.05
2023-02-15T03:04:02.307Z,81.95
2023-02-15T03:07:01.880Z,81.78
2023-02-15T03:09:42.967Z,81.64
2023-02-15T03:12:13.441Z,81.75
2023-02-15T03:14:46.926Z,81.83
2023-02-15T03:17:18.525Z,81.88
2023-02-15T03:19:49.872Z,81.96
2023-02-15T03:22:36.826Z,81.91
2023-02-15T03:25:26.571Z,81.95
2023-02-15T03:28:07.445Z,82.18
2023-02-15T03:30:38.135Z,82.45
2023-02-15T03:33:08.641Z,82.40
2023-02-15T03:36:00.801Z,82.37
2023-02-15T03:38:52.160Z,82.50
2023-02-15T03:41:24.260Z,82.40
2023-02-15T03:44:04.781Z,82.37
2023-02-15T03:46:57.620Z,82.51
2023-02-15T03:49:46.322Z,82.44
2023-02-15T03:52:17.762Z,82.53
2023-02-15T03:54:49.069Z,82.61
2023-02-15T03:58:15.114Z,82.66
2023-02-15T04:01:14.544Z,82.70
2023-02-15T04:03:53.352Z,82.59
2023-02-15T04:06:21.907Z,82.68
2023-02-15T04:09:08.881Z,82.55
2023-02-15T04:11:37.526Z,82.59
2023-02-15T04:14:26.280Z,82.66
2023-02-15T04:16:54.742Z,82.68
2023-02-15T04:19:43.249Z,82.66
2023-02-15T04:22:30.568Z,82.68
2023-02-15T04:25:14.481Z,82.80
2023-02-15T04:27:50.573Z,82.87
2023-02-15T04:30:23.520Z,82.96
2023-02-15T04:32:52.469Z,82.88
2023-02-15T04:35:21.192Z,82.84
2023-02-15T04:37:49.991Z,82.75
2023-02-15T04:40:19.781Z,82.79
2023-02-15T04:42:50.393Z,82.72
2023-02-15T04:45:19.234Z,82.82
2023-02-15T04:47:47.771Z,82.98
2023-02-15T04:50:16.369Z,82.87
2023-02-15T04:52:45.000Z,83.03
2023-02-15T04:55:14.121Z,83.16
2023-02-15T04:57:42.920Z,83.09
2023-02-15T05:00:12.490Z,83.21
2023-02-15T05:02:41.010Z,83.25
2023-02-15T05:05:10.697Z,83.21
2023-02-15T05:07:39.272Z,83.32
2023-02-15T05:10:08.497Z,83.07
2023-02-15T05:12:37.180Z,83.20
2023-02-15T05:15:06.168Z,83.00
2023-02-15T05:17:34.940Z,83.18
2023-02-15T05:20:04.653Z,83.19
2023-02-15T05:22:33.305Z,83.25
2023-02-15T05:25:20.367Z,83.42
2023-02-15T05:28:07.638Z,83.44
2023-02-15T05:30:36.595Z,83.59
2023-02-15T05:33:08.836Z,83.43
2023-02-15T05:35:37.579Z,83.14
2023-02-15T05:38:06.257Z,83.34
2023-02-15T05:40:34.907Z,83.38
2023-02-15T05:43:06.273Z,83.56
2023-02-15T05:45:34.955Z,83.43
2023-02-15T05:48:03.819Z,83.59
2023-02-15T05:50:32.390Z,83.51
2023-02-15T05:53:01.965Z,83.23
2023-02-15T05:55:30.560Z,83.52
2023-02-15T05:57:59.172Z,83.40
2023-02-15T06:00:27.821Z,83.40
2023-02-15T06:02:56.506Z,83.41
2023-02-15T06:05:25.177Z,83.24
2023-02-15T06:07:53.737Z,83.24
2023-02-15T06:10:22.429Z,83.17
2023-02-15T06:12:51.045Z,83.19
2023-02-15T06:15:20.158Z,82.85
2023-02-15T06:17:48.945Z,82.50
2023-02-15T06:20:18.582Z,82.24
2023-02-15T06:22:47.753Z,82.47
2023-02-15T06:25:16.494Z,82.67
2023-02-15T06:27:45.058Z,83.03
2023-02-15T06:30:20.723Z,82.71
2023-02-15T06:32:49.579Z,82.38
2023-02-15T06:35:18.198Z,82.17
2023-02-15T06:37:47.988Z,81.94
2023-02-15T06:40:17.142Z,82.19
2023-02-15T06:42:46.226Z,81.76
2023-02-15T06:45:15.270Z,81.58
2023-02-15T06:47:43.984Z,81.53
2023-02-15T06:50:13.571Z,81.32
2023-02-15T06:52:42.159Z,80.78
2023-02-15T06:55:11.400Z,80.47
2023-02-15T06:57:42.889Z,80.51
2023-02-15T07:00:12.930Z,80.42
2023-02-15T07:02:41.727Z,80.40
2023-02-15T07:05:11.767Z,80.30
2023-02-15T07:07:41.063Z,79.91
2023-02-15T07:10:10.025Z,79.75
2023-02-15T07:12:45.509Z,79.92
2023-02-15T07:15:21.792Z,79.90
2023-02-15T07:17:53.908Z,79.79
2023-02-15T07:20:24.801Z,79.61
2023-02-15T07:22:53.908Z,79.44
2023-02-15T07:25:22.605Z,79.32
2023-02-15T07:28:00.949Z,79.59
2023-02-15T07:30:31.227Z,79.06
2023-02-15T07:33:19.661Z,79.15
2023-02-15T07:35:58.985Z,78.43
2023-02-15T07:38:32.540Z,78.22
2023-02-15T07:41:09.715Z,78.07
2023-02-15T07:43:43.370Z,77.19
2023-02-15T07:46:18.250Z,76.52
2023-02-15T07:48:47.109Z,76.30
2023-02-15T07:51:17.075Z,76.20
2023-02-15T07:53:46.667Z,76.00
2023-02-15T07:56:16.711Z,75.90
2023-02-15T07:58:55.771Z,75.71
2023-02-15T08:01:39.933Z,75.34
2023-02-15T08:04:12.710Z,75.49
2023-02-15T08:06:41.499Z,74.95
2023-02-15T08:09:10.736Z,74.78
2023-02-15T08:11:42.009Z,74.46
2023-02-15T08:14:20.191Z,74.31
2023-02-15T08:16:52.025Z,73.90
2023-02-15T08:19:26.212Z,72.50
2023-02-15T08:22:01.039Z,71.41
2023-02-15T08:24:33.440Z,70.54
2023-02-15T08:27:06.416Z,70.57
2023-02-15T08:29:37.908Z,70.44
2023-02-15T08:32:10.766Z,69.42
2023-02-15T08:34:43.071Z,69.11
2023-02-15T08:37:11.767Z,69.51
2023-02-15T08:39:40.397Z,69.05
2023-02-15T08:42:09.491Z,67.68
2023-02-15T08:44:38.122Z,66.40
2023-02-15T08:47:06.732Z,66.92
2023-02-15T08:49:35.456Z,66.81
2023-02-15T08:52:04.705Z,67.90
2023-02-15T08:54:33.577Z,66.96
2023-02-15T08:57:02.341Z,66.96
2023-02-15T08:59:31.002Z,66.32
2023-02-15T09:01:59.680Z,65.21
2023-02-15T09:04:28.481Z,63.91
2023-02-15T09:06:57.096Z,63.99
2023-02-15T09:09:26.164Z,63.67
2023-02-15T09:11:59.241Z,63.74
2023-02-15T09:14:28.883Z,61.68
2023-02-15T09:16:58.033Z,60.29
2023-02-15T09:19:27.021Z,61.08
2023-02-15T09:22:19.206Z,61.56
2023-02-15T09:24:55.174Z,63.32
2023-02-15T09:27:24.023Z,62.01
2023-02-15T09:29:52.878Z,58.87
2023-02-15T09:32:21.645Z,58.65
2023-02-15T09:34:50.691Z,59.93
2023-02-15T09:37:20.204Z,58.93
2023-02-15T09:39:49.256Z,57.97
2023-02-15T09:42:37.663Z,58.03
2023-02-15T09:45:41.580Z,57.82
2023-02-15T09:48:38.029Z,57.62
2023-02-15T09:51:25.118Z,59.38
2023-02-15T09:54:12.144Z,59.05
2023-02-15T09:56:53.574Z,58.24
2023-02-15T09:59:50.971Z,57.73
2023-02-15T10:02:45.501Z,55.78
2023-02-15T10:06:00.588Z,55.81
2023-02-15T10:08:56.077Z,56.28
2023-02-15T10:11:52.279Z,56.74
2023-02-15T10:15:08.332Z,56.74
2023-02-15T10:18:01.234Z,55.96
2023-02-15T10:20:51.557Z,56.17
2023-02-15T10:23:41.221Z,56.32
2023-02-15T10:29:45.615Z,56.36
2023-02-15T10:32:30.815Z,56.54
2023-02-15T10:35:30.721Z,56.56
2023-02-15T10:38:35.557Z,55.69
2023-02-15T10:41:42.536Z,56.24
2023-02-15T10:44:17.024Z,56.22
2023-02-15T10:46:57.930Z,56.70
2023-02-15T10:49:52.179Z,55.57
2023-02-15T10:52:46.929Z,55.79
2023-02-15T10:56:01.368Z,56.26
2023-02-15T10:59:26.255Z,56.46
2023-02-15T11:02:32.854Z,56.49
2023-02-15T11:05:43.915Z,56.05
2023-02-15T11:08:13.186Z,55.70
2023-02-15T11:10:54.262Z,55.04
2023-02-15T11:13:29.557Z,56.18
2023-02-15T11:16:08.550Z,56.20
2023-02-15T11:18:43.081Z,55.79
2023-02-15T11:21:47.194Z,53.84
2023-02-15T11:24:21.330Z,54.57
2023-02-15T11:27:06.556Z,55.49
2023-02-15T11:29:42.904Z,55.32
2023-02-15T11:32:23.019Z,54.80
2023-02-15T11:34:59.380Z,54.94
2023-02-15T11:37:41.597Z,55.20
2023-02-15T11:40:27.015Z,55.72
2023-02-15T11:43:03.469Z,55.74
2023-02-15T11:45:35.727Z,54.86
2023-02-15T11:48:12.691Z,52.67
2023-02-15T11:50:46.096Z,53.48
2023-02-15T11:53:26.782Z,54.61
2023-02-15T11:55:56.780Z,54.24
2023-02-15T11:58:46.562Z,54.90
2023-02-15T12:01:42.580Z,55.18
2023-02-15T12:04:19.868Z,53.90
2023-02-15T12:07:19.269Z,53.90
2023-02-15T12:09:52.400Z,54.24
2023-02-15T12:12:26.108Z,53.22
2023-02-15T12:15:10.024Z,53.42
2023-02-15T12:17:56.306Z,52.84
2023-02-15T12:20:37.705Z,52.63
2023-02-15T12:23:14.322Z,52.55
2023-02-15T12:25:53.191Z,52.51
2023-02-15T12:28:41.110Z,50.77
2023-02-15T12:31:24.498Z,51.11
2023-02-15T12:33:56.429Z,51.20
2023-02-15T12:36:45.788Z,51.73
2023-02-15T12:39:20.829Z,51.27
2023-02-15T12:41:57.109Z,50.75
2023-02-15T12:44:35.150Z,51.63
2023-02-15T12:47:08.490Z,52.55
2023-02-15T12:49:38.916Z,51.60
2023-02-15T12:52:21.573Z,50.35
2023-02-15T12:54:51.621Z,50.50
2023-02-15T12:57:34.864Z,50.01
2023-02-15T13:00:28.940Z,49.53
2023-02-15T13:03:00.121Z,49.41
2023-02-15T13:05:46.204Z,48.56
2023-02-15T13:08:23.415Z,48.67
2023-02-15T13:10:58.855Z,49.05
2023-02-15T13:13:35.655Z,48.40
2023-02-15T13:16:12.621Z,48.87
2023-02-15T13:18:45.932Z,46.61
2023-02-15T13:21:27.846Z,46.27
2023-02-15T13:24:06.872Z,46.67
2023-02-15T13:26:36.458Z,47.48
2023-02-15T13:29:10.038Z,48.80
2023-02-15T13:31:41.122Z,47.46
2023-02-15T13:34:25.684Z,46.33
2023-02-15T13:37:27.716Z,45.37
2023-02-15T13:40:27.358Z,45.62
2023-02-15T13:43:46.971Z,45.41
2023-02-15T13:47:00.955Z,45.40
2023-02-15T13:50:03.555Z,46.12
2023-02-15T13:52:43.032Z,47.65
2023-02-15T13:55:26.888Z,48.06
2023-02-15T13:58:02.792Z,48.50
2023-02-15T14:00:53.773Z,47.04
2023-02-15T14:03:35.146Z,45.49
2023-02-15T14:06:43.024Z,44.99
2023-02-15T14:09:51.958Z,45.05
2023-02-15T14:12:45.357Z,45.59
2023-02-15T14:15:44.056Z,44.91
2023-02-15T14:18:56.882Z,44.59
2023-02-15T14:21:35.104Z,44.17
2023-02-15T14:24:45.764Z,43.24
2023-02-15T14:27:44.250Z,43.53
2023-02-15T14:30:28.386Z,43.53
2023-02-15T14:33:04.562Z,43.79
2023-02-15T14:35:33.753Z,43.98
2023-02-15T14:38:39.046Z,43.86
2023-02-15T14:41:29.998Z,42.54
2023-02-15T14:44:29.277Z,42.43
2023-02-15T14:47:32.147Z,43.05
2023-02-15T14:50:20.788Z,43.74
2023-02-15T14:53:39.502Z,44.66
2023-02-15T14:56:19.297Z,45.69
2023-02-15T14:58:53.648Z,46.12
2023-02-15T15:01:59.852Z,46.23
2023-02-15T15:04:44.606Z,45.97
2023-02-15T15:07:46.633Z,46.46
2023-02-15T15:10:17.728Z,47.14
2023-02-15T15:12:57.921Z,47.18
2023-02-15T15:15:32.515Z,47.69
2023-02-15T15:18:08.729Z,47.64
2023-02-15T15:20:50.911Z,47.85
2023-02-15T15:23:19.871Z,48.09
2023-02-15T15:26:31.889Z,48.69
2023-02-15T15:29:02.163Z,48.78
2023-02-15T15:31:40.253Z,49.06
2023-02-15T15:35:02.158Z,49.10
2023-02-15T15:38:16.782Z,49.46
2023-02-15T15:41:17.124Z,50.00
2023-02-15T15:44:08.369Z,50.70
2023-02-15T15:47:05.077Z,51.01
2023-02-15T15:49:37.716Z,51.06
2023-02-15T15:52:20.184Z,51.21
2023-02-15T15:54:55.781Z,51.42
2023-02-15T15:57:39.563Z,52.06
2023-02-15T16:00:43.756Z,52.51
2023-02-15T16:03:21.836Z,52.83
2023-02-15T16:05:55.530Z,53.09
2023-02-15T16:08:42.334Z,53.05
2023-02-15T16:11:28.536Z,53.59
2023-02-15T16:13:57.410Z,53.74
2023-02-15T16:16:30.741Z,54.01
2023-02-15T16:19:00.830Z,54.15
2023-02-15T16:21:35.100Z,54.33
2023-02-15T16:24:23.004Z,54.60
2023-02-15T16:27:06.620Z,55.23
2023-02-15T16:29:35.689Z,55.40
2023-02-15T16:32:28.071Z,55.62
2023-02-15T16:35:00.734Z,56.02
2023-02-15T16:37:38.298Z,55.98
2023-02-15T16:40:14.650Z,56.23
2023-02-15T16:42:43.435Z,56.19
2023-02-15T16:45:20.827Z,56.33
2023-02-15T16:47:54.732Z,56.82
2023-02-15T16:50:34.620Z,56.91
2023-02-15T16:53:05.316Z,57.31
2023-02-15T16:55:43.275Z,57.16
2023-02-15T16:58:18.451Z,57.50
2023-02-15T17:00:47.386Z,57.53
2023-02-15T17:03:16.061Z,57.50
2023-02-15T17:05:49.025Z,57.67
2023-02-15T17:08:33.939Z,58.28
2023-02-15T17:11:23.332Z,58.20
2023-02-15T17:14:04.412Z,58.19
2023-02-15T17:17:06.437Z,58.15
2023-02-15T17:19:50.379Z,58.26
2023-02-15T17:22:23.892Z,58.92
2023-02-15T17:25:05.631Z,58.79
2023-02-15T17:27:36.263Z,58.88
2023-02-15T17:30:18.869Z,58.92
2023-02-15T17:33:05.075Z,58.74
2023-02-15T17:35:33.950Z,58.89
2023-02-15T17:38:16.454Z,59.22
2023-02-15T17:40:45.120Z,59.26
2023-02-15T17:43:13.701Z,59.22
2023-02-15T17:45:50.131Z,59.67
2023-02-15T17:48:31.938Z,60.10
2023-02-15T17:51:04.856Z,60.33
2023-02-15T17:53:34.343Z,60.40
2023-02-15T17:56:10.673Z,60.66
2023-02-15T17:58:39.945Z,60.62
2023-02-15T18:01:36.736Z,60.71
2023-02-15T18:04:25.214Z,60.86
2023-02-15T18:07:12.358Z,60.87
2023-02-15T18:09:59.608Z,61.22
2023-02-15T18:12:35.188Z,61.67
2023-02-15T18:15:04.665Z,61.87
2023-02-15T18:17:43.572Z,61.86
2023-02-15T18:20:18.433Z,62.12
2023-02-15T18:22:47.533Z,62.27
2023-02-15T18:25:19.542Z,62.36
2023-02-15T18:27:48.154Z,62.25
2023-02-15T18:30:23.965Z,62.23
2023-02-15T18:32:56.846Z,62.36
2023-02-15T18:35:30.492Z,62.53
2023-02-15T18:38:01.805Z,62.52
2023-02-15T18:40:30.855Z,62.81
2023-02-15T18:42:59.601Z,62.85
2023-02-15T18:45:33.421Z,62.79
2023-02-15T18:48:02.096Z,62.89
2023-02-15T18:50:38.231Z,62.97
2023-02-15T18:53:13.872Z,63.15
2023-02-15T18:55:42.571Z,62.99
2023-02-15T18:58:18.558Z,62.79
2023-02-15T19:00:49.146Z,62.89
2023-02-15T19:03:18.470Z,63.02
2023-02-15T19:05:47.918Z,63.18
2023-02-15T19:08:24.806Z,63.06
2023-02-15T19:10:53.385Z,62.91
2023-02-15T19:13:21.922Z,62.92
2023-02-15T19:15:50.502Z,63.30
2023-02-15T19:18:19.871Z,63.48
2023-02-15T19:20:48.834Z,63.28
2023-02-15T19:23:24.061Z,63.57
2023-02-15T19:25:54.895Z,63.60
2023-02-15T19:28:33.770Z,63.39
2023-02-15T19:31:02.523Z,63.62
2023-02-15T19:33:31.208Z,63.95
2023-02-15T19:35:59.923Z,64.00
2023-02-15T19:38:35.417Z,64.32
2023-02-15T19:41:09.659Z,63.92
2023-02-15T19:43:38.429Z,64.11
2023-02-15T19:46:07.199Z,64.12
2023-02-15T19:48:35.938Z,64.23
2023-02-15T19:51:04.881Z,64.43
2023-02-15T19:53:34.077Z,64.55
2023-02-15T19:56:02.922Z,64.43
2023-02-15T19:58:31.722Z,64.43
2023-02-15T20:01:00.467Z,64.45
2023-02-15T20:03:29.507Z,64.33
2023-02-15T20:05:58.024Z,64.11
2023-02-15T20:08:27.005Z,64.08
2023-02-15T20:10:57.405Z,64.03
2023-02-15T20:13:26.430Z,63.85
2023-02-15T20:15:55.207Z,63.53
2023-02-15T20:18:23.749Z,63.15
2023-02-15T20:20:54.939Z,62.80
2023-02-15T20:23:30.693Z,62.55
2023-02-15T20:26:02.645Z,62.22
2023-02-15T20:28:32.051Z,62.13
2023-02-15T20:31:00.979Z,61.77
2023-02-15T20:33:30.296Z,61.59
2023-02-15T20:36:00.420Z,61.45
2023-02-15T20:38:32.767Z,61.73
2023-02-15T20:41:20.348Z,61.87
2023-02-15T20:43:48.964Z,61.73
2023-02-15T20:46:20.532Z,62.86
2023-02-15T20:48:50.967Z,63.41
2023-02-15T20:51:22.355Z,64.10
2023-02-15T20:53:50.877Z,64.36
2023-02-15T20:56:25.765Z,64.51
2023-02-15T20:58:54.585Z,64.61
2023-02-15T21:01:23.295Z,64.76
2023-02-15T21:03:51.936Z,64.46
2023-02-15T21:06:20.639Z,64.36
2023-02-15T21:08:49.296Z,64.67
2023-02-15T21:11:23.397Z,64.64
2023-02-15T21:13:52.149Z,64.97
2023-02-15T21:16:21.066Z,65.33
2023-02-15T21:18:49.649Z,65.09
2023-02-15T21:21:23.981Z,65.24
2023-02-15T21:23:53.683Z,65.31
2023-02-15T21:26:23.461Z,65.67
2023-02-15T21:28:51.972Z,66.09
2023-02-15T21:31:25.530Z,66.07
2023-02-15T21:33:54.112Z,66.07
2023-02-15T21:36:25.807Z,66.07
2023-02-15T21:38:54.708Z,66.35
2023-02-15T21:41:44.762Z,66.35
2023-02-15T21:44:40.612Z,66.09
2023-02-15T21:47:37.721Z,66.27
2023-02-15T21:50:28.019Z,65.86
2023-02-15T21:52:57.359Z,66.08
2023-02-15T21:55:27.103Z,65.69
2023-02-15T21:57:56.290Z,65.52
2023-02-15T22:00:26.495Z,65.27
2023-02-15T22:02:58.466Z,65.20
2023-02-15T22:05:34.177Z,65.24
2023-02-15T22:08:02.783Z,64.99
2023-02-15T22:10:33.606Z,64.46
2023-02-15T22:13:03.451Z,64.57
2023-02-15T22:15:37.274Z,64.29
2023-02-15T22:18:06.536Z,63.99
2023-02-15T22:20:35.172Z,63.90
2023-02-15T22:23:03.693Z,63.98
2023-02-15T22:25:32.214Z,63.65
2023-02-15T22:28:00.936Z,63.19
2023-02-15T22:30:33.408Z,63.42
2023-02-15T22:33:02.186Z,63.37
2023-02-15T22:35:34.690Z,63.59
2023-02-15T22:38:03.381Z,63.92
2023-02-15T22:40:34.668Z,64.13
2023-02-15T22:43:06.044Z,64.00
2023-02-15T22:45:36.579Z,63.87
2023-02-15T22:48:05.305Z,63.52
2023-02-15T22:50:35.881Z,63.41
2023-02-15T22:53:06.055Z,63.42
2023-02-15T22:55:38.092Z,63.39
2023-02-15T22:58:07.236Z,63.22
2023-02-15T23:00:40.773Z,63.42
2023-02-15T23:03:24.433Z,63.28
2023-02-15T23:05:53.371Z,63.51
2023-02-15T23:08:21.922Z,63.19
2023-02-15T23:10:56.371Z,63.16
2023-02-15T23:13:32.432Z,63.50
2023-02-15T23:16:04.853Z,63.03
2023-02-15T23:18:41.376Z,62.91
2023-02-15T23:21:16.241Z,62.49
2023-02-15T23:23:48.236Z,62.00
2023-02-15T23:26:24.600Z,61.98
2023-02-15T23:28:55.988Z,61.83
2023-02-15T23:31:29.470Z,61.62
2023-02-15T23:34:00.506Z,61.52
2023-02-15T23:36:34.606Z,61.27
2023-02-15T23:39:42.327Z,61.17
2023-02-15T23:42:17.390Z,61.05
2023-02-15T23:44:48.278Z,60.73
2023-02-15T23:47:55.656Z,61.32
2023-02-15T23:50:30.208Z,62.33
2023-02-15T23:52:59.166Z,62.55
2023-02-15T23:55:41.141Z,62.74
2023-02-15T23:58:19.988Z,62.41
